Saint Anthony, Canada
Current Conditions -  °F | °C
As of 7:46 AM on Monday 20 Oct 2014 (Local Time) from CYAY Reporting Station
Light Rain Light Rain  
Wind Chill: 46°   Ceiling: 600
Heat Index: 48°   Visibility: 7mi
Dew Point: 46°   Wind: 5mph
Humidity: 93%   Direction: 60°ENE
Pressure: 29.52"   Gusts: NA
Location:  51.48°N, 55.81°W
Report Text: CYAY 200946Z AUTO 06004KT 7SM -RA OVC006 09/08 A2952 RMK PRESFR PCPN 1.5MM PAST HR SLP997
Loading
Personal Weather Stations






























Interactive Weather Map New forecast layout! Learn more

10-Day Weather Forecast

Advertisements
Track Severe Weather on mobile